createdAt,value
2018-09-27T00:01:55.321Z,4.63
2018-09-27T00:04:23.467Z,4.10
2018-09-27T00:06:51.715Z,3.90
2018-09-27T00:09:19.984Z,4.17
2018-09-27T00:11:48.140Z,4.00
2018-09-27T00:14:16.367Z,4.30
2018-09-27T00:16:44.606Z,3.57
2018-09-27T00:19:12.797Z,3.37
2018-09-27T00:21:41.161Z,3.37
2018-09-27T00:24:09.416Z,3.83
2018-09-27T00:26:37.641Z,3.73
2018-09-27T00:29:05.855Z,3.30
2018-09-27T00:31:34.085Z,3.50
2018-09-27T00:34:02.234Z,3.30
2018-09-27T00:36:30.432Z,3.73
2018-09-27T00:38:58.625Z,2.97
2018-09-27T00:41:27.908Z,3.60
2018-09-27T00:43:56.236Z,3.40
2018-09-27T00:46:27.430Z,2.60
2018-09-27T00:48:55.626Z,2.50
2018-09-27T00:51:23.869Z,2.40
2018-09-27T00:53:52.082Z,2.70
2018-09-27T00:56:20.419Z,2.77
2018-09-27T00:58:49.252Z,2.57
2018-09-27T01:01:17.470Z,2.33
2018-09-27T01:03:45.704Z,2.87
2018-09-27T01:06:14.021Z,3.07
2018-09-27T01:08:42.208Z,2.57
2018-09-27T01:11:10.412Z,2.30
2018-09-27T01:13:38.836Z,2.30
2018-09-27T01:16:07.145Z,2.50
2018-09-27T01:18:35.709Z,2.43
2018-09-27T01:21:04.093Z,2.40
2018-09-27T01:23:32.338Z,2.33
2018-09-27T01:26:00.954Z,2.33
2018-09-27T01:28:31.418Z,1.93
2018-09-27T01:30:59.638Z,2.87
2018-09-27T01:33:27.785Z,2.30
2018-09-27T01:35:56.031Z,2.00
2018-09-27T01:38:24.289Z,2.20
2018-09-27T01:40:52.531Z,2.27
2018-09-27T01:43:20.757Z,2.20
2018-09-27T01:45:49.003Z,2.30
2018-09-27T01:48:17.283Z,2.23
2018-09-27T01:50:45.504Z,1.93
2018-09-27T01:53:14.129Z,2.20
2018-09-27T01:55:42.452Z,2.10
2018-09-27T01:58:10.683Z,1.80
2018-09-27T02:00:38.869Z,2.10
2018-09-27T02:03:07.120Z,2.20
2018-09-27T02:05:35.392Z,2.30
2018-09-27T02:08:06.627Z,2.10
2018-09-27T02:10:34.849Z,2.07
2018-09-27T02:13:03.065Z,1.50
2018-09-27T02:15:31.252Z,2.20
2018-09-27T02:17:59.462Z,2.37
2018-09-27T02:20:27.635Z,1.97
2018-09-27T02:22:55.877Z,2.13
2018-09-27T02:25:24.110Z,1.93
2018-09-27T02:27:52.388Z,2.33
2018-09-27T02:30:20.620Z,1.83
2018-09-27T02:32:48.860Z,1.80
2018-09-27T02:35:17.109Z,2.17
2018-09-27T02:37:45.330Z,1.63
2018-09-27T02:40:13.583Z,2.20
2018-09-27T02:42:41.820Z,1.60
2018-09-27T02:45:10.056Z,1.87
2018-09-27T02:47:38.367Z,1.80
2018-09-27T02:50:06.732Z,1.77
2018-09-27T02:52:34.959Z,1.90
2018-09-27T02:55:03.303Z,1.70
2018-09-27T02:57:31.470Z,1.73
2018-09-27T02:59:59.660Z,2.00
2018-09-27T03:02:27.895Z,1.90
2018-09-27T03:04:56.084Z,2.00
2018-09-27T03:07:24.301Z,2.00
2018-09-27T03:09:52.521Z,2.60
2018-09-27T03:12:20.788Z,2.00
2018-09-27T03:14:48.973Z,2.20
2018-09-27T03:17:17.220Z,2.97
2018-09-27T03:19:45.485Z,2.27
2018-09-27T03:22:13.713Z,2.30
2018-09-27T03:24:41.979Z,1.90
2018-09-27T03:27:10.203Z,2.40
2018-09-27T03:29:38.360Z,2.40
2018-09-27T03:32:06.957Z,2.37
2018-09-27T03:34:35.158Z,2.80
2018-09-27T03:37:03.387Z,2.10
2018-09-27T03:39:31.612Z,2.23
2018-09-27T03:41:59.828Z,1.93
2018-09-27T03:44:28.020Z,2.23
2018-09-27T03:46:56.364Z,2.10
2018-09-27T03:49:24.551Z,2.00
2018-09-27T03:51:52.724Z,2.23
2018-09-27T03:54:20.951Z,1.80
2018-09-27T03:56:49.107Z,2.07
2018-09-27T03:59:17.321Z,2.30
2018-09-27T04:01:45.758Z,2.17
2018-09-27T04:04:14.412Z,2.03
2018-09-27T04:06:42.909Z,1.97
2018-09-27T04:09:11.682Z,2.10
2018-09-27T04:11:40.312Z,2.37
2018-09-27T04:14:09.151Z,1.70
2018-09-27T04:16:37.484Z,1.80
2018-09-27T04:19:05.721Z,1.63
2018-09-27T04:21:33.926Z,2.17
2018-09-27T04:24:02.187Z,1.87
2018-09-27T04:26:30.345Z,1.90
2018-09-27T04:28:58.519Z,2.27
2018-09-27T04:31:26.842Z,1.80
2018-09-27T04:33:55.139Z,1.63
2018-09-27T04:36:23.374Z,2.83
2018-09-27T04:38:51.586Z,1.80
2018-09-27T04:41:20.173Z,1.83
2018-09-27T04:43:48.413Z,1.93
2018-09-27T04:46:16.628Z,1.67
2018-09-27T04:48:44.900Z,1.77
2018-09-27T04:51:13.196Z,1.83
2018-09-27T04:53:41.541Z,1.83
2018-09-27T04:56:09.818Z,1.73
2018-09-27T04:58:38.275Z,1.33
2018-09-27T05:01:06.866Z,1.60
2018-09-27T05:03:35.094Z,1.67
2018-09-27T05:06:03.337Z,1.60
2018-09-27T05:08:31.576Z,2.17
2018-09-27T05:10:59.769Z,1.43
2018-09-27T05:13:27.971Z,1.70
2018-09-27T05:15:56.315Z,1.57
2018-09-27T05:18:24.501Z,1.53
2018-09-27T05:20:52.794Z,1.70
2018-09-27T05:23:21.095Z,1.77
2018-09-27T05:25:49.384Z,1.87
2018-09-27T05:28:17.634Z,1.50
2018-09-27T05:30:45.862Z,1.70
2018-09-27T05:33:14.110Z,1.80
2018-09-27T05:35:42.434Z,2.20
2018-09-27T05:38:10.822Z,2.30
2018-09-27T05:40:39.080Z,2.20
2018-09-27T05:43:07.454Z,2.33
2018-09-27T05:45:37.548Z,2.40
2018-09-27T05:48:05.834Z,2.13
2018-09-27T05:50:34.154Z,1.90
2018-09-27T05:53:02.428Z,1.70
2018-09-27T05:55:30.714Z,2.03
2018-09-27T05:57:59.194Z,2.17
2018-09-27T06:00:27.708Z,1.80
2018-09-27T06:02:56.137Z,1.97
2018-09-27T06:05:24.515Z,2.30
2018-09-27T06:07:52.714Z,2.33
2018-09-27T06:10:21.004Z,2.47
2018-09-27T06:12:49.354Z,2.13
2018-09-27T06:15:17.599Z,2.73
2018-09-27T06:17:45.834Z,2.73
2018-09-27T06:20:14.250Z,3.20
2018-09-27T06:22:42.576Z,3.10
2018-09-27T06:25:10.908Z,3.00
2018-09-27T06:27:39.309Z,3.10
2018-09-27T06:30:07.569Z,3.03
2018-09-27T06:32:35.853Z,2.63
2018-09-27T06:35:04.290Z,2.80
2018-09-27T06:37:32.486Z,3.00
2018-09-27T06:40:00.856Z,2.60
2018-09-27T06:42:29.159Z,2.87
2018-09-27T06:44:57.548Z,2.47
2018-09-27T06:47:25.859Z,2.80
2018-09-27T06:49:54.098Z,2.77
2018-09-27T06:52:22.416Z,2.90
2018-09-27T06:54:50.754Z,2.70
2018-09-27T06:57:19.114Z,2.23
2018-09-27T06:59:47.439Z,2.83
2018-09-27T07:02:15.738Z,3.63
2018-09-27T07:04:44.111Z,3.00
2018-09-27T07:07:12.382Z,2.73
2018-09-27T07:09:40.635Z,2.60
2018-09-27T07:12:09.837Z,2.60
2018-09-27T07:14:38.208Z,2.50
2018-09-27T07:17:06.555Z,2.50
2018-09-27T07:19:35.001Z,2.63
2018-09-27T07:22:03.173Z,2.67
2018-09-27T07:24:31.369Z,2.73
2018-09-27T07:26:59.698Z,2.70
2018-09-27T07:29:28.208Z,2.83
2018-09-27T07:31:56.454Z,3.30
2018-09-27T07:34:24.706Z,2.47
2018-09-27T07:36:53.162Z,3.27
2018-09-27T07:39:21.458Z,2.60
2018-09-27T07:41:49.899Z,2.70
2018-09-27T07:44:18.337Z,3.10
2018-09-27T07:46:46.634Z,3.20
2018-09-27T07:49:14.794Z,3.10
2018-09-27T07:51:43.150Z,3.30
2018-09-27T07:54:14.623Z,3.60
2018-09-27T07:56:43.229Z,3.93
2018-09-27T07:59:11.598Z,3.00
2018-09-27T08:01:39.873Z,3.70
2018-09-27T08:04:08.201Z,4.10
2018-09-27T08:06:36.591Z,3.60
2018-09-27T08:09:06.473Z,4.00
2018-09-27T08:11:34.875Z,3.73
2018-09-27T08:14:03.182Z,4.13
2018-09-27T08:16:31.722Z,3.77
2018-09-27T08:21:44.993Z,4.03
2018-09-27T08:24:13.269Z,4.50
2018-09-27T08:26:41.570Z,3.77
2018-09-27T08:29:09.798Z,3.27
2018-09-27T08:31:38.077Z,4.30
2018-09-27T08:34:06.311Z,3.67
2018-09-27T08:36:34.535Z,3.60
2018-09-27T08:39:02.893Z,3.53
2018-09-27T08:41:31.123Z,3.93
2018-09-27T08:43:59.440Z,3.87
2018-09-27T08:46:27.785Z,4.07
2018-09-27T08:48:56.081Z,3.93
2018-09-27T08:51:24.347Z,4.07
2018-09-27T08:53:52.680Z,3.97
2018-09-27T08:56:20.935Z,3.73
2018-09-27T08:58:49.182Z,3.67
2018-09-27T09:01:17.567Z,3.17
2018-09-27T09:03:46.092Z,3.67
2018-09-27T09:06:14.123Z,3.67
2018-09-27T09:08:42.388Z,3.77
2018-09-27T09:11:10.701Z,3.90
2018-09-27T09:13:39.034Z,3.03
2018-09-27T09:16:07.387Z,3.40
2018-09-27T09:18:35.855Z,3.50
2018-09-27T09:21:05.017Z,3.23
2018-09-27T09:23:33.450Z,3.27
2018-09-27T09:26:01.904Z,3.40
2018-09-27T09:28:30.089Z,3.40
2018-09-27T09:30:58.398Z,3.20
2018-09-27T09:33:33.284Z,3.30
2018-09-27T09:36:01.562Z,4.17
2018-09-27T09:38:29.648Z,4.17
2018-09-27T09:40:57.976Z,3.70
2018-09-27T09:43:26.215Z,3.37
2018-09-27T09:45:54.760Z,3.40
2018-09-27T09:48:23.195Z,3.47
2018-09-27T09:50:51.459Z,3.50
2018-09-27T09:53:19.717Z,3.53
2018-09-27T09:55:48.183Z,2.77
2018-09-27T09:58:16.605Z,3.07
2018-09-27T10:00:44.773Z,3.40
2018-09-27T10:03:13.064Z,3.97
2018-09-27T10:05:41.403Z,3.53
2018-09-27T10:08:09.603Z,3.00
2018-09-27T10:10:37.829Z,3.17
2018-09-27T10:13:06.106Z,3.30
2018-09-27T10:15:34.346Z,3.37
2018-09-27T10:18:02.558Z,3.30
2018-09-27T10:20:30.825Z,3.60
2018-09-27T10:22:59.129Z,3.97
2018-09-27T10:25:27.378Z,3.67
2018-09-27T10:27:56.743Z,3.27
2018-09-27T10:30:24.957Z,2.90
2018-09-27T10:32:53.201Z,2.97
2018-09-27T10:35:21.499Z,3.17
2018-09-27T10:37:49.784Z,3.20
2018-09-27T10:40:18.094Z,3.13
2018-09-27T10:42:46.555Z,2.67
2018-09-27T10:45:14.896Z,2.70
2018-09-27T10:47:43.162Z,2.53
2018-09-27T10:50:11.370Z,2.67
2018-09-27T10:52:39.549Z,2.77
2018-09-27T10:55:07.771Z,2.60
2018-09-27T10:57:36.031Z,3.00
2018-09-27T11:00:04.561Z,4.97
2018-09-27T11:02:32.756Z,3.10
2018-09-27T11:05:01.236Z,2.77
2018-09-27T11:07:36.225Z,2.90
2018-09-27T11:10:04.507Z,2.60
2018-09-27T11:12:32.727Z,2.50
2018-09-27T11:15:00.933Z,2.27
2018-09-27T11:17:29.294Z,2.50
2018-09-27T11:19:57.565Z,2.37
2018-09-27T11:22:25.744Z,2.47
2018-09-27T11:24:54.084Z,2.23
2018-09-27T11:27:22.238Z,2.63
2018-09-27T11:29:54.732Z,2.83
2018-09-27T11:32:27.283Z,2.37
2018-09-27T11:34:55.668Z,2.20
2018-09-27T11:37:24.066Z,2.40
2018-09-27T11:39:52.528Z,2.27
2018-09-27T11:42:29.995Z,2.10
2018-09-27T11:45:11.580Z,1.97
2018-09-27T11:47:40.667Z,2.27
2018-09-27T11:50:09.224Z,2.60
2018-09-27T11:52:38.836Z,2.20
2018-09-27T11:55:15.052Z,2.60
2018-09-27T11:57:48.443Z,2.33
2018-09-27T12:00:17.208Z,3.93
2018-09-27T12:02:45.465Z,3.10
2018-09-27T12:05:13.759Z,2.70
2018-09-27T12:07:41.987Z,2.40
2018-09-27T12:10:10.141Z,2.37
2018-09-27T12:12:38.371Z,2.70
2018-09-27T12:15:06.752Z,2.60
2018-09-27T12:17:35.107Z,2.53
2018-09-27T12:20:03.201Z,2.33
2018-09-27T12:22:31.447Z,2.00
2018-09-27T12:24:59.680Z,2.20
2018-09-27T12:27:27.901Z,2.17
2018-09-27T12:29:56.099Z,1.60
2018-09-27T12:32:24.413Z,2.43
2018-09-27T12:34:52.592Z,2.07
2018-09-27T12:37:21.035Z,1.80
2018-09-27T12:39:49.378Z,2.20
2018-09-27T12:42:17.655Z,2.93
2018-09-27T12:44:45.951Z,2.10
2018-09-27T12:47:14.223Z,2.00
2018-09-27T12:49:42.399Z,2.37
2018-09-27T12:52:10.972Z,1.80
2018-09-27T12:54:39.032Z,1.60
2018-09-27T12:57:07.393Z,1.60
2018-09-27T12:59:35.725Z,2.53
2018-09-27T13:02:04.148Z,4.20
2018-09-27T13:04:32.212Z,3.67
2018-09-27T13:07:00.525Z,2.60
2018-09-27T13:09:28.919Z,2.20
2018-09-27T13:11:57.301Z,2.40
2018-09-27T13:14:30.587Z,2.27
2018-09-27T13:16:59.141Z,3.00
2018-09-27T13:19:27.336Z,3.00
2018-09-27T13:21:58.745Z,3.43
2018-09-27T13:24:26.998Z,2.90
2018-09-27T13:26:55.466Z,2.30
2018-09-27T13:29:23.743Z,2.47
2018-09-27T13:31:51.990Z,2.83
2018-09-27T13:34:20.232Z,2.23
2018-09-27T13:36:48.475Z,3.23
2018-09-27T13:39:16.852Z,4.80
2018-09-27T13:41:45.128Z,2.43
2018-09-27T13:44:13.284Z,2.50
2018-09-27T13:46:41.468Z,2.47
2018-09-27T13:49:09.871Z,2.30
2018-09-27T13:51:37.960Z,2.13
2018-09-27T13:54:06.297Z,2.73
2018-09-27T13:56:34.589Z,3.10
2018-09-27T13:59:02.829Z,2.60
2018-09-27T14:01:31.307Z,2.53
2018-09-27T14:03:59.633Z,1.80
2018-09-27T14:06:28.069Z,1.40
2018-09-27T14:08:59.430Z,1.60
2018-09-27T14:11:27.734Z,1.40
2018-09-27T14:13:56.745Z,2.07
2018-09-27T14:16:25.115Z,1.80
2018-09-27T14:18:53.392Z,3.07
2018-09-27T14:21:21.809Z,1.60
2018-09-27T14:23:53.170Z,1.87
2018-09-27T14:26:25.883Z,2.00
2018-09-27T14:28:54.222Z,2.93
2018-09-27T14:31:22.862Z,1.90
2018-09-27T14:33:51.169Z,1.67
2018-09-27T14:36:19.525Z,1.20
2018-09-27T14:38:47.905Z,1.83
2018-09-27T14:41:16.169Z,1.70
2018-09-27T14:43:44.469Z,1.70
2018-09-27T14:46:13.961Z,1.60
2018-09-27T14:48:43.535Z,2.00
2018-09-27T14:51:11.783Z,1.90
2018-09-27T14:53:40.294Z,2.10
2018-09-27T14:56:08.819Z,1.50
2018-09-27T14:58:38.047Z,1.77
2018-09-27T15:01:11.331Z,1.80
2018-09-27T15:03:47.010Z,1.77
2018-09-27T15:06:15.398Z,1.80
2018-09-27T15:08:43.754Z,1.63
2018-09-27T15:11:12.053Z,1.97
2018-09-27T15:13:40.552Z,2.33
2018-09-27T15:16:08.886Z,1.60
2018-09-27T15:18:40.208Z,1.80
2018-09-27T15:21:08.734Z,2.23
2018-09-27T15:23:37.076Z,2.20
2018-09-27T15:26:05.426Z,2.63
2018-09-27T15:28:33.828Z,2.17
2018-09-27T15:31:02.171Z,2.13
2018-09-27T15:33:30.609Z,1.80
2018-09-27T15:35:59.054Z,1.90
2018-09-27T15:38:27.308Z,2.40
2018-09-27T15:40:56.084Z,3.07
2018-09-27T15:43:24.557Z,4.73
2018-09-27T15:45:52.816Z,4.13
2018-09-27T15:48:21.470Z,4.70
2018-09-27T15:50:50.661Z,3.40
2018-09-27T15:53:19.008Z,3.53
2018-09-27T15:55:47.296Z,2.97
2018-09-27T15:58:15.570Z,2.97
2018-09-27T16:00:44.197Z,2.77
2018-09-27T16:03:13.262Z,2.20
2018-09-27T16:05:44.786Z,2.53
2018-09-27T16:08:13.237Z,2.17
2018-09-27T16:10:44.731Z,2.93
2018-09-27T16:13:13.196Z,2.17
2018-09-27T16:15:44.815Z,3.37
2018-09-27T16:20:45.855Z,3.00
2018-09-27T16:23:19.231Z,3.07
2018-09-27T16:25:47.945Z,3.60
2018-09-27T16:28:16.379Z,3.07
2018-09-27T16:30:44.934Z,3.10
2018-09-27T16:33:13.203Z,3.90
2018-09-27T16:35:41.422Z,3.73
2018-09-27T16:38:09.957Z,2.90
2018-09-27T16:40:38.273Z,4.33
2018-09-27T16:43:06.565Z,4.50
2018-09-27T16:45:34.916Z,3.90
2018-09-27T16:48:06.446Z,4.70
2018-09-27T16:50:37.822Z,6.20
2018-09-27T16:53:06.357Z,14.67
2018-09-27T16:55:34.658Z,9.80
2018-09-27T16:58:03.391Z,9.90
2018-09-27T17:00:31.935Z,12.60
2018-09-27T17:03:01.228Z,9.57
2018-09-27T17:05:29.907Z,9.10
2018-09-27T17:07:58.225Z,6.83
2018-09-27T17:10:26.527Z,4.30
2018-09-27T17:12:55.112Z,4.43
2018-09-27T17:15:29.694Z,4.60
2018-09-27T17:17:58.214Z,3.70
2018-09-27T17:20:26.462Z,4.07
2018-09-27T17:22:54.835Z,4.43
2018-09-27T17:25:23.083Z,4.10
2018-09-27T17:27:51.305Z,3.80
2018-09-27T17:30:19.583Z,4.20
2018-09-27T17:32:47.779Z,3.27
2018-09-27T17:35:16.024Z,3.30
2018-09-27T17:37:45.387Z,5.03
2018-09-27T17:40:13.975Z,6.77
2018-09-27T17:42:42.377Z,11.67
2018-09-27T17:45:11.030Z,11.00
2018-09-27T17:47:39.446Z,9.47
2018-09-27T17:50:07.975Z,10.57
2018-09-27T17:52:36.344Z,9.07
2018-09-27T17:55:05.088Z,9.97
2018-09-27T17:57:33.494Z,12.03
2018-09-27T18:00:01.797Z,12.77
2018-09-27T18:02:30.349Z,12.37
2018-09-27T18:04:58.824Z,14.53
2018-09-27T18:07:27.197Z,15.63
2018-09-27T18:09:55.574Z,14.13
2018-09-27T18:12:24.034Z,12.90
2018-09-27T18:14:52.454Z,9.47
2018-09-27T18:17:20.785Z,7.83
2018-09-27T18:19:49.451Z,6.13
2018-09-27T18:22:21.785Z,5.40
2018-09-27T18:24:50.600Z,5.50
2018-09-27T18:27:19.150Z,5.73
2018-09-27T18:29:47.416Z,5.27
2018-09-27T18:32:15.726Z,6.50
2018-09-27T18:34:48.265Z,7.50
2018-09-27T18:37:16.544Z,8.13
2018-09-27T18:39:47.701Z,8.27
2018-09-27T18:42:16.236Z,9.60
2018-09-27T18:44:44.585Z,9.27
2018-09-27T18:47:13.028Z,9.10
2018-09-27T18:49:42.670Z,9.90
2018-09-27T18:52:11.006Z,10.87
2018-09-27T18:54:41.658Z,10.07
2018-09-27T18:57:10.134Z,10.73
2018-09-27T18:59:38.395Z,10.67
2018-09-27T19:02:07.060Z,11.00
2018-09-27T19:04:35.562Z,11.53
2018-09-27T19:07:07.425Z,12.23
2018-09-27T19:09:36.953Z,10.57
2018-09-27T19:12:06.269Z,11.37
2018-09-27T19:14:34.503Z,10.80
2018-09-27T19:17:02.995Z,11.37
2018-09-27T19:19:31.393Z,11.80
2018-09-27T19:22:03.573Z,9.63
2018-09-27T19:24:31.842Z,9.53
2018-09-27T19:27:00.061Z,8.63
2018-09-27T19:29:29.553Z,8.70
2018-09-27T19:31:58.571Z,8.17
2018-09-27T19:34:27.573Z,7.50
2018-09-27T19:36:59.763Z,7.83
2018-09-27T19:39:28.174Z,7.00
2018-09-27T19:41:56.583Z,7.30
2018-09-27T19:44:24.926Z,7.33
2018-09-27T19:46:53.448Z,7.07
2018-09-27T19:49:22.707Z,6.63
2018-09-27T19:51:50.990Z,7.37
2018-09-27T19:54:19.333Z,7.13
2018-09-27T19:56:47.722Z,7.17
2018-09-27T19:59:16.236Z,7.50
2018-09-27T20:01:44.584Z,6.53
2018-09-27T20:04:13.211Z,7.30
2018-09-27T20:06:41.557Z,7.67
2018-09-27T20:09:12.188Z,7.33
2018-09-27T20:11:40.596Z,7.53
2018-09-27T20:14:09.075Z,7.83
2018-09-27T20:16:37.605Z,7.47
2018-09-27T20:19:06.341Z,7.20
2018-09-27T20:21:34.926Z,7.43
2018-09-27T20:24:03.388Z,8.30
2018-09-27T20:26:31.892Z,7.50
2018-09-27T20:29:00.307Z,8.33
2018-09-27T20:31:28.620Z,7.63
2018-09-27T20:33:56.905Z,7.33
2018-09-27T20:36:25.693Z,8.17
2018-09-27T20:38:53.970Z,7.63
2018-09-27T20:41:22.165Z,7.03
2018-09-27T20:43:50.428Z,8.77
2018-09-27T20:46:18.906Z,8.23
2018-09-27T20:48:47.309Z,8.07
2018-09-27T20:51:15.550Z,8.40
2018-09-27T20:53:43.784Z,7.83
2018-09-27T20:56:12.001Z,8.87
2018-09-27T20:58:40.300Z,10.13
2018-09-27T21:01:08.527Z,9.23
2018-09-27T21:03:36.753Z,9.17
2018-09-27T21:06:05.043Z,9.57
2018-09-27T21:08:33.326Z,8.73
2018-09-27T21:11:01.595Z,9.73
2018-09-27T21:13:29.894Z,8.67
2018-09-27T21:15:58.130Z,8.87
2018-09-27T21:18:26.334Z,9.93
2018-09-27T21:20:54.734Z,9.87
2018-09-27T21:23:22.967Z,10.47
2018-09-27T21:25:51.448Z,10.10
2018-09-27T21:28:19.767Z,8.17
2018-09-27T21:30:48.045Z,8.93
2018-09-27T21:33:16.243Z,9.60
2018-09-27T21:35:44.624Z,8.80
2018-09-27T21:38:12.835Z,10.60
2018-09-27T21:40:41.195Z,10.40
2018-09-27T21:43:09.604Z,8.60
2018-09-27T21:45:38.629Z,9.23
2018-09-27T21:48:06.853Z,8.90
2018-09-27T21:50:35.137Z,10.60
2018-09-27T21:53:04.183Z,9.13
2018-09-27T21:55:35.558Z,10.07
2018-09-27T21:58:03.812Z,8.97
2018-09-27T22:00:31.997Z,9.43
2018-09-27T22:03:00.234Z,9.33
2018-09-27T22:05:29.443Z,8.97
2018-09-27T22:07:57.705Z,9.27
2018-09-27T22:10:26.083Z,8.43
2018-09-27T22:12:54.346Z,8.30
2018-09-27T22:15:22.640Z,7.90
2018-09-27T22:17:51.019Z,9.07
2018-09-27T22:20:19.257Z,7.10
2018-09-27T22:22:47.438Z,7.37
2018-09-27T22:25:15.669Z,7.63
2018-09-27T22:27:43.936Z,6.87
2018-09-27T22:30:12.258Z,7.13
2018-09-27T22:32:40.649Z,7.67
2018-09-27T22:35:08.854Z,6.90
2018-09-27T22:37:37.054Z,6.23
2018-09-27T22:40:05.276Z,6.60
2018-09-27T22:42:33.552Z,6.07
2018-09-27T22:45:01.730Z,7.23
2018-09-27T22:47:29.983Z,6.50
2018-09-27T22:49:58.240Z,6.30
2018-09-27T22:52:26.460Z,6.67
2018-09-27T22:54:54.764Z,5.63
2018-09-27T22:57:22.944Z,5.83
2018-09-27T22:59:51.139Z,5.90
2018-09-27T23:02:19.668Z,6.43
2018-09-27T23:04:47.940Z,6.33
2018-09-27T23:07:16.142Z,5.97
2018-09-27T23:09:44.437Z,6.77
2018-09-27T23:12:12.595Z,6.20
2018-09-27T23:14:40.803Z,5.40
2018-09-27T23:17:09.040Z,5.87
2018-09-27T23:19:37.222Z,5.93
2018-09-27T23:22:05.449Z,5.77
2018-09-27T23:24:33.705Z,5.03
2018-09-27T23:27:01.931Z,5.70
2018-09-27T23:29:30.158Z,5.60
2018-09-27T23:31:58.472Z,4.87
2018-09-27T23:34:26.654Z,5.60
2018-09-27T23:36:54.837Z,5.57
2018-09-27T23:39:23.040Z,6.63
2018-09-27T23:41:51.206Z,6.50
2018-09-27T23:44:19.347Z,6.20
2018-09-27T23:46:47.634Z,6.77
2018-09-27T23:49:15.873Z,6.13
2018-09-27T23:51:44.055Z,5.57
2018-09-27T23:54:12.323Z,6.27
2018-09-27T23:56:40.483Z,6.67
2018-09-27T23:59:08.665Z,5.97
